createdAt,value
2022-08-12T00:00:47.126Z,20.03
2022-08-12T00:03:31.954Z,19.85
2022-08-12T00:06:17.525Z,19.95
2022-08-12T00:09:02.408Z,19.90
2022-08-12T00:11:47.336Z,19.80
2022-08-12T00:14:32.757Z,19.84
2022-08-12T00:17:18.156Z,19.83
2022-08-12T00:20:03.985Z,19.74
2022-08-12T00:22:53.100Z,19.71
2022-08-12T00:26:20.929Z,19.78
2022-08-12T00:29:03.970Z,19.59
2022-08-12T00:31:49.229Z,19.60
2022-08-12T00:34:35.118Z,19.56
2022-08-12T00:37:20.320Z,19.58
2022-08-12T00:40:10.730Z,19.51
2022-08-12T00:42:40.891Z,19.44
2022-08-12T00:45:08.671Z,19.48
2022-08-12T00:47:35.332Z,19.36
2022-08-12T00:50:01.799Z,19.42
2022-08-12T00:52:28.181Z,19.39
2022-08-12T00:54:57.882Z,19.27
2022-08-12T00:57:30.302Z,19.12
2022-08-12T00:59:59.935Z,19.13
2022-08-12T01:02:27.949Z,19.20
2022-08-12T01:05:34.209Z,19.17
2022-08-12T01:08:19.032Z,18.97
2022-08-12T01:11:06.516Z,18.93
2022-08-12T01:13:36.012Z,18.87
2022-08-12T01:16:05.926Z,18.93
2022-08-12T01:18:36.889Z,18.83
2022-08-12T01:21:12.157Z,18.78
2022-08-12T01:24:30.266Z,18.83
2022-08-12T01:26:59.340Z,18.92
2022-08-12T01:29:32.968Z,18.81
2022-08-12T01:32:05.042Z,18.71
2022-08-12T01:34:37.518Z,18.82
2022-08-12T01:37:07.438Z,18.81
2022-08-12T01:40:30.847Z,18.62
2022-08-12T01:42:27.968Z,18.50
2022-08-12T01:44:55.574Z,18.36
2022-08-12T01:48:05.055Z,18.27
2022-08-12T01:50:40.493Z,18.50
2022-08-12T01:53:12.197Z,18.49
2022-08-12T01:55:45.154Z,18.47
2022-08-12T01:58:18.507Z,18.24
2022-08-12T02:00:55.538Z,18.42
2022-08-12T02:03:59.722Z,18.44
2022-08-12T02:06:51.929Z,18.33
2022-08-12T02:09:44.813Z,18.12
2022-08-12T02:12:39.064Z,18.14
2022-08-12T02:15:30.243Z,18.10
2022-08-12T02:18:03.911Z,18.20
2022-08-12T02:20:53.110Z,18.29
2022-08-12T02:23:26.459Z,18.16
2022-08-12T02:25:56.881Z,18.10
2022-08-12T02:28:24.200Z,17.97
2022-08-12T02:30:51.002Z,18.07
2022-08-12T02:33:19.369Z,18.21
2022-08-12T02:35:46.033Z,18.05
2022-08-12T02:38:12.649Z,18.03
2022-08-12T02:40:42.980Z,17.89
2022-08-12T02:43:21.451Z,17.98
2022-08-12T02:45:55.110Z,17.97
2022-08-12T02:48:46.235Z,17.81
2022-08-12T02:51:17.402Z,17.86
2022-08-12T02:53:45.215Z,17.85
2022-08-12T02:56:30.856Z,17.63
2022-08-12T02:58:58.570Z,17.66
2022-08-12T03:01:32.162Z,17.61
2022-08-12T03:04:00.447Z,17.65
2022-08-12T03:06:32.142Z,17.75
2022-08-12T03:09:01.818Z,17.52
2022-08-12T03:11:54.424Z,17.41
2022-08-12T03:14:21.751Z,17.43
2022-08-12T03:16:57.395Z,17.51
2022-08-12T03:19:24.666Z,17.37
2022-08-12T03:22:09.122Z,17.28
2022-08-12T03:24:38.838Z,17.39
2022-08-12T03:27:08.975Z,17.40
2022-08-12T03:29:43.418Z,17.41
2022-08-12T03:32:36.401Z,17.33
2022-08-12T03:35:07.207Z,17.19
2022-08-12T03:37:36.403Z,17.18
2022-08-12T03:40:03.573Z,17.08
2022-08-12T03:42:42.395Z,17.08
2022-08-12T03:45:52.530Z,17.08
2022-08-12T03:48:38.800Z,17.07
2022-08-12T03:51:24.195Z,17.11
2022-08-12T03:54:11.301Z,16.90
2022-08-12T03:56:57.775Z,16.95
2022-08-12T03:59:43.197Z,16.81
2022-08-12T04:02:14.692Z,16.82
2022-08-12T04:04:45.074Z,16.65
2022-08-12T04:07:14.055Z,16.92
2022-08-12T04:09:43.179Z,16.89
2022-08-12T04:12:39.509Z,16.82
2022-08-12T04:15:08.768Z,16.81
2022-08-12T04:17:36.084Z,16.89
2022-08-12T04:20:02.812Z,16.61
2022-08-12T04:22:30.177Z,16.72
2022-08-12T04:25:01.124Z,16.77
2022-08-12T04:27:29.960Z,16.81
2022-08-12T04:30:31.590Z,16.65
2022-08-12T04:32:44.891Z,16.69
2022-08-12T04:35:12.257Z,16.65
2022-08-12T04:37:59.195Z,16.53
2022-08-12T04:40:28.904Z,16.65
2022-08-12T04:42:55.884Z,16.73
2022-08-12T04:45:22.658Z,16.73
2022-08-12T04:47:49.338Z,16.71
2022-08-12T04:50:35.170Z,16.66
2022-08-12T04:53:08.495Z,16.71
2022-08-12T04:55:37.203Z,16.75
2022-08-12T04:58:03.668Z,16.86
2022-08-12T05:00:30.268Z,16.82
2022-08-12T05:02:56.874Z,16.82
2022-08-12T05:05:23.928Z,16.79
2022-08-12T05:07:54.357Z,16.78
2022-08-12T05:10:33.895Z,16.99
2022-08-12T05:13:07.267Z,16.92
2022-08-12T05:15:34.743Z,16.89
2022-08-12T05:18:19.293Z,16.98
2022-08-12T05:20:48.245Z,17.03
2022-08-12T05:23:17.384Z,17.06
2022-08-12T05:25:46.974Z,17.22
2022-08-12T05:28:14.308Z,17.20
2022-08-12T05:30:42.389Z,17.31
2022-08-12T05:33:09.978Z,17.39
2022-08-12T05:35:40.087Z,17.31
2022-08-12T05:38:26.066Z,17.42
2022-08-12T05:40:52.659Z,17.53
2022-08-12T05:43:19.076Z,17.42
2022-08-12T05:45:46.817Z,17.50
2022-08-12T05:48:13.544Z,17.58
2022-08-12T05:50:41.411Z,17.66
2022-08-12T05:53:08.111Z,17.67
2022-08-12T05:55:35.615Z,17.80
2022-08-12T05:58:02.989Z,17.91
2022-08-12T06:00:31.417Z,17.95
2022-08-12T06:03:02.118Z,17.96
2022-08-12T06:05:29.749Z,18.12
2022-08-12T06:08:02.077Z,18.12
2022-08-12T06:10:31.678Z,18.18
2022-08-12T06:13:04.412Z,18.26
2022-08-12T06:15:35.680Z,18.29
2022-08-12T06:18:11.469Z,18.37
2022-08-12T06:20:41.383Z,18.43
2022-08-12T06:23:10.767Z,18.51
2022-08-12T06:25:37.421Z,18.66
2022-08-12T06:28:14.618Z,18.81
2022-08-12T06:30:41.212Z,18.98
2022-08-12T06:33:21.939Z,19.13
2022-08-12T06:35:57.765Z,19.29
2022-08-12T06:38:26.868Z,19.41
2022-08-12T06:41:16.867Z,19.49
2022-08-12T06:44:07.188Z,19.56
2022-08-12T06:46:31.321Z,19.66
2022-08-12T06:48:58.818Z,19.73
2022-08-12T06:51:28.073Z,19.81
2022-08-12T06:53:55.811Z,19.89
2022-08-12T06:56:30.627Z,20.00
2022-08-12T06:59:11.123Z,20.12
2022-08-12T07:01:38.426Z,20.18
2022-08-12T07:04:26.405Z,20.29
2022-08-12T07:06:51.401Z,20.35
2022-08-12T07:10:01.226Z,20.46
2022-08-12T07:12:04.821Z,20.51
2022-08-12T07:14:31.588Z,20.58
2022-08-12T07:17:02.085Z,20.64
2022-08-12T07:19:45.180Z,20.74
2022-08-12T07:22:13.967Z,20.86
2022-08-12T07:24:40.410Z,20.95
2022-08-12T07:27:06.879Z,21.04
2022-08-12T07:30:02.525Z,21.06
2022-08-12T07:32:24.296Z,21.10
2022-08-12T07:34:50.697Z,21.13
2022-08-12T07:37:17.770Z,21.20
2022-08-12T07:39:51.270Z,21.26
2022-08-12T07:42:28.367Z,21.39
2022-08-12T07:44:55.767Z,21.49
2022-08-12T07:47:22.931Z,21.59
2022-08-12T07:50:05.082Z,21.69
2022-08-12T07:52:42.638Z,21.79
2022-08-12T07:55:10.697Z,21.89
2022-08-12T07:57:54.077Z,21.99
2022-08-12T08:00:20.883Z,22.11
2022-08-12T08:02:49.208Z,22.20
2022-08-12T08:05:16.143Z,22.35
2022-08-12T08:07:42.848Z,22.59
2022-08-12T08:10:11.440Z,22.62
2022-08-12T08:12:53.281Z,22.74
2022-08-12T08:15:20.991Z,22.87
2022-08-12T08:17:59.535Z,22.92
2022-08-12T08:20:30.419Z,22.96
2022-08-12T08:22:58.805Z,23.09
2022-08-12T08:25:35.788Z,23.26
2022-08-12T08:28:09.747Z,23.28
2022-08-12T08:30:39.623Z,23.43
2022-08-12T08:33:22.986Z,23.53
2022-08-12T08:35:55.560Z,23.69
2022-08-12T08:38:31.880Z,23.82
2022-08-12T08:42:19.027Z,23.81
2022-08-12T08:44:05.815Z,23.93
2022-08-12T08:46:37.531Z,23.95
2022-08-12T08:49:05.245Z,24.11
2022-08-12T08:51:31.983Z,24.28
2022-08-12T08:53:58.433Z,24.49
2022-08-12T08:56:24.841Z,24.59
2022-08-12T08:58:51.221Z,24.59
2022-08-12T09:01:22.283Z,24.60
2022-08-12T09:05:04.631Z,24.57
2022-08-12T09:09:23.786Z,24.82
2022-08-12T09:12:11.733Z,24.88
2022-08-12T09:14:43.526Z,24.97
2022-08-12T09:17:13.890Z,25.10
2022-08-12T09:19:53.658Z,25.19
2022-08-12T09:22:29.294Z,25.32
2022-08-12T09:24:56.048Z,25.44
2022-08-12T09:27:57.543Z,25.58
2022-08-12T09:30:15.947Z,25.61
2022-08-12T09:33:04.962Z,25.60
2022-08-12T09:35:44.266Z,25.61
2022-08-12T09:38:28.322Z,25.77
2022-08-12T09:42:08.910Z,25.85
2022-08-12T09:44:06.153Z,25.82
2022-08-12T09:46:34.522Z,25.82
2022-08-12T09:49:04.118Z,25.95
2022-08-12T09:51:43.565Z,25.97
2022-08-12T09:54:32.886Z,26.08
2022-08-12T09:57:03.840Z,26.23
2022-08-12T10:00:17.785Z,26.33
2022-08-12T10:02:45.121Z,26.41
2022-08-12T10:05:22.585Z,26.43
2022-08-12T10:08:11.239Z,26.55
2022-08-12T10:11:01.162Z,26.62
2022-08-12T10:13:43.881Z,26.68
2022-08-12T10:16:28.569Z,26.84
2022-08-12T10:19:02.124Z,26.83
2022-08-12T10:21:41.105Z,26.88
2022-08-12T10:24:11.421Z,27.02
2022-08-12T10:26:58.187Z,27.11
2022-08-12T10:30:37.939Z,27.26
2022-08-12T10:32:45.396Z,27.35
2022-08-12T10:35:15.235Z,27.45
2022-08-12T10:38:35.402Z,27.35
2022-08-12T10:40:33.125Z,27.45
2022-08-12T10:43:19.774Z,27.59
2022-08-12T10:45:48.935Z,27.52
2022-08-12T10:48:23.078Z,27.77
2022-08-12T10:51:02.435Z,27.75
2022-08-12T10:53:44.334Z,27.72
2022-08-12T10:56:17.064Z,27.70
2022-08-12T10:58:46.145Z,27.80
2022-08-12T11:01:49.197Z,27.98
2022-08-12T11:04:28.234Z,27.99
2022-08-12T11:07:06.996Z,28.05
2022-08-12T11:09:59.971Z,28.09
2022-08-12T11:12:55.162Z,28.26
2022-08-12T11:15:20.721Z,28.31
2022-08-12T11:17:52.996Z,28.23
2022-08-12T11:20:24.025Z,28.31
2022-08-12T11:22:59.355Z,28.44
2022-08-12T11:25:55.515Z,28.55
2022-08-12T11:28:13.986Z,28.60
2022-08-12T11:30:41.736Z,28.76
2022-08-12T11:33:12.248Z,28.59
2022-08-12T11:35:41.488Z,28.59
2022-08-12T11:38:10.174Z,28.68
2022-08-12T11:40:37.033Z,28.75
2022-08-12T11:43:18.912Z,28.94
2022-08-12T11:45:47.532Z,29.01
2022-08-12T11:48:15.560Z,29.00
2022-08-12T11:50:45.416Z,29.10
2022-08-12T11:53:57.611Z,29.17
2022-08-12T11:55:58.172Z,29.27
2022-08-12T11:59:36.000Z,29.30
2022-08-12T12:03:57.535Z,29.35
2022-08-12T12:06:24.821Z,29.45
2022-08-12T12:08:53.935Z,29.44
2022-08-12T12:11:22.108Z,29.47
2022-08-12T12:14:07.813Z,29.54
2022-08-12T12:16:39.626Z,29.44
2022-08-12T12:19:06.917Z,29.44
2022-08-12T12:21:46.929Z,29.42
2022-08-12T12:24:22.040Z,29.46
2022-08-12T12:26:59.524Z,29.52
2022-08-12T12:30:18.339Z,29.53
2022-08-12T12:32:15.185Z,29.50
2022-08-12T12:35:14.211Z,29.40
2022-08-12T12:38:05.527Z,29.46
2022-08-12T12:40:14.946Z,29.47
2022-08-12T12:42:44.372Z,29.63
2022-08-12T12:45:26.166Z,29.65
2022-08-12T12:47:57.782Z,29.58
2022-08-12T12:50:35.032Z,29.63
2022-08-12T12:53:02.627Z,29.59
2022-08-12T12:55:32.654Z,29.63
2022-08-12T12:58:04.528Z,29.66
2022-08-12T13:00:32.813Z,29.46
2022-08-12T13:03:00.021Z,29.54
2022-08-12T13:05:42.454Z,29.57
2022-08-12T13:08:28.607Z,29.49
2022-08-12T13:11:04.566Z,29.51
2022-08-12T13:14:07.278Z,29.44
2022-08-12T13:16:23.188Z,29.47
2022-08-12T13:18:50.801Z,29.40
2022-08-12T13:21:33.132Z,29.37
2022-08-12T13:24:09.616Z,29.37
2022-08-12T13:26:37.764Z,29.31
2022-08-12T13:29:04.322Z,29.20
2022-08-12T13:31:30.707Z,29.05
2022-08-12T13:34:32.464Z,29.02
2022-08-12T13:36:50.628Z,29.10
2022-08-12T13:39:21.263Z,29.14
2022-08-12T13:41:49.570Z,29.19
2022-08-12T13:44:16.713Z,29.12
2022-08-12T13:46:43.466Z,29.15
2022-08-12T13:49:17.297Z,29.15
2022-08-12T13:51:51.042Z,29.21
2022-08-12T13:54:19.701Z,29.14
2022-08-12T13:56:49.792Z,29.21
2022-08-12T13:59:20.319Z,29.24
2022-08-12T14:01:51.750Z,29.31
2022-08-12T14:04:19.258Z,29.37
2022-08-12T14:06:50.451Z,29.40
2022-08-12T14:09:18.272Z,29.32
2022-08-12T14:11:59.136Z,29.25
2022-08-12T14:14:31.653Z,29.10
2022-08-12T14:17:05.131Z,29.04
2022-08-12T14:19:38.062Z,29.01
2022-08-12T14:22:13.651Z,28.95
2022-08-12T14:24:42.270Z,28.84
2022-08-12T14:27:11.847Z,28.92
2022-08-12T14:30:04.949Z,28.89
2022-08-12T14:32:34.239Z,28.83
2022-08-12T14:35:00.675Z,28.80
2022-08-12T14:37:56.508Z,28.76
2022-08-12T14:40:18.401Z,28.72
2022-08-12T14:42:46.923Z,28.66
2022-08-12T14:45:13.742Z,28.63
2022-08-12T14:47:47.932Z,28.55
2022-08-12T14:50:57.336Z,28.46
2022-08-12T14:59:23.373Z,28.21
2022-08-12T15:01:52.234Z,28.22
2022-08-12T15:04:28.542Z,28.17
2022-08-12T15:06:56.074Z,28.10
2022-08-12T15:09:29.104Z,28.11
2022-08-12T15:12:03.755Z,28.13
2022-08-12T15:14:31.011Z,28.16
2022-08-12T15:17:00.266Z,28.10
2022-08-12T15:20:31.033Z,28.06
2022-08-12T15:22:37.912Z,28.01
2022-08-12T15:25:07.576Z,27.90
2022-08-12T15:28:03.815Z,27.90
2022-08-12T15:30:31.337Z,27.86
2022-08-12T15:32:58.000Z,27.83
2022-08-12T15:35:31.309Z,27.90
2022-08-12T15:38:10.399Z,27.93
2022-08-12T15:40:46.832Z,27.84
2022-08-12T15:44:15.670Z,27.86
2022-08-12T15:46:04.746Z,27.89
2022-08-12T15:48:34.325Z,27.87
2022-08-12T15:51:02.152Z,27.82
2022-08-12T15:53:53.431Z,27.81
2022-08-12T15:56:29.387Z,27.86
2022-08-12T15:58:58.756Z,27.79
2022-08-12T16:01:34.846Z,27.76
2022-08-12T16:04:03.216Z,27.71
2022-08-12T16:06:51.012Z,27.67
2022-08-12T16:09:45.354Z,27.63
2022-08-12T16:12:08.796Z,27.67
2022-08-12T16:14:38.625Z,27.68
2022-08-12T16:17:05.367Z,27.69
2022-08-12T16:20:02.783Z,27.77
2022-08-12T16:22:22.637Z,27.81
2022-08-12T16:24:52.084Z,27.82
2022-08-12T16:27:19.076Z,27.84
2022-08-12T16:29:52.885Z,27.81
2022-08-12T16:32:23.058Z,27.79
2022-08-12T16:34:54.665Z,27.71
2022-08-12T16:37:32.398Z,27.72
2022-08-12T16:40:04.825Z,27.63
2022-08-12T16:42:38.959Z,27.57
2022-08-12T16:45:13.704Z,27.53
2022-08-12T16:47:58.588Z,27.48
2022-08-12T16:50:31.356Z,27.45
2022-08-12T16:52:59.672Z,27.41
2022-08-12T16:55:35.058Z,27.37
2022-08-12T16:58:18.536Z,27.34
2022-08-12T17:00:54.996Z,27.33
2022-08-12T17:03:28.867Z,27.34
2022-08-12T17:05:55.977Z,27.28
2022-08-12T17:08:29.276Z,27.24
2022-08-12T17:10:56.252Z,27.22
2022-08-12T17:13:26.027Z,27.21
2022-08-12T17:16:04.891Z,27.16
2022-08-12T17:18:43.461Z,27.19
2022-08-12T17:21:20.289Z,27.19
2022-08-12T17:24:15.252Z,27.13
2022-08-12T17:26:45.068Z,27.16
2022-08-12T17:29:32.305Z,27.10
2022-08-12T17:32:08.568Z,27.07
2022-08-12T17:34:54.607Z,27.07
2022-08-12T17:37:21.445Z,27.05
2022-08-12T17:40:15.778Z,27.03
2022-08-12T17:42:35.561Z,27.06
2022-08-12T17:45:17.104Z,27.05
2022-08-12T17:47:45.466Z,27.07
2022-08-12T17:50:28.700Z,27.05
2022-08-12T17:52:58.013Z,27.04
2022-08-12T17:55:31.629Z,27.01
2022-08-12T17:58:13.885Z,26.98
2022-08-12T18:00:44.000Z,26.97
2022-08-12T18:03:13.496Z,26.93
2022-08-12T18:06:06.139Z,26.87
2022-08-12T18:08:35.577Z,26.88
2022-08-12T18:11:21.378Z,26.81
2022-08-12T18:14:07.336Z,26.78
2022-08-12T18:16:34.952Z,26.75
2022-08-12T18:19:02.427Z,26.74
2022-08-12T18:22:00.956Z,26.70
2022-08-12T18:24:22.195Z,26.66
2022-08-12T18:26:53.505Z,26.64
2022-08-12T18:29:20.748Z,26.61
2022-08-12T18:31:59.754Z,26.59
2022-08-12T18:34:32.246Z,26.55
2022-08-12T18:36:59.622Z,26.50
2022-08-12T18:39:57.871Z,26.47
2022-08-12T18:42:26.176Z,26.44
2022-08-12T18:44:58.033Z,26.40
2022-08-12T18:47:26.839Z,26.31
2022-08-12T18:50:15.083Z,26.26
2022-08-12T18:52:48.466Z,26.13
2022-08-12T18:55:15.916Z,25.99
2022-08-12T18:58:05.895Z,25.82
2022-08-12T19:00:33.414Z,25.65
2022-08-12T19:03:02.265Z,25.63
2022-08-12T19:05:52.684Z,25.48
2022-08-12T19:08:15.199Z,25.33
2022-08-12T19:10:42.796Z,25.22
2022-08-12T19:13:35.560Z,25.23
2022-08-12T19:16:09.543Z,25.14
2022-08-12T19:18:40.425Z,25.03
2022-08-12T19:21:11.893Z,24.97
2022-08-12T19:23:42.964Z,24.87
2022-08-12T19:26:12.539Z,24.88
2022-08-12T19:28:40.558Z,24.78
2022-08-12T19:31:45.132Z,24.68
2022-08-12T19:34:56.480Z,24.67
2022-08-12T19:37:27.221Z,24.49
2022-08-12T19:40:09.791Z,24.46
2022-08-12T19:42:53.617Z,24.39
2022-08-12T19:45:20.851Z,24.30
2022-08-12T19:47:48.780Z,24.25
2022-08-12T19:50:20.181Z,24.16
2022-08-12T19:52:47.276Z,24.15
2022-08-12T19:55:21.583Z,24.17
2022-08-12T19:58:03.296Z,24.13
2022-08-12T20:00:34.822Z,24.09
2022-08-12T20:03:04.256Z,24.01
2022-08-12T20:06:05.803Z,23.96
2022-08-12T20:08:34.039Z,23.95
2022-08-12T20:12:14.107Z,23.86
2022-08-12T20:14:00.456Z,23.79
2022-08-12T20:16:51.040Z,23.71
2022-08-12T20:19:15.121Z,23.63
2022-08-12T20:21:43.400Z,23.50
2022-08-12T20:24:12.211Z,23.47
2022-08-12T20:26:41.997Z,23.36
2022-08-12T20:29:10.155Z,23.32
2022-08-12T20:31:36.590Z,23.31
2022-08-12T20:34:03.768Z,23.20
2022-08-12T20:36:41.612Z,23.22
2022-08-12T20:39:37.355Z,23.23
2022-08-12T20:42:04.407Z,23.08
2022-08-12T20:44:36.323Z,23.05
2022-08-12T20:47:18.502Z,23.01
2022-08-12T20:49:55.851Z,22.95
2022-08-12T20:52:30.122Z,22.92
2022-08-12T20:54:57.647Z,22.77
2022-08-12T20:57:24.325Z,22.71
2022-08-12T20:59:52.648Z,22.70
2022-08-12T21:02:24.421Z,22.60
2022-08-12T21:05:19.935Z,22.49
2022-08-12T21:07:51.559Z,22.35
2022-08-12T21:10:21.022Z,22.39
2022-08-12T21:12:47.890Z,22.31
2022-08-12T21:15:22.878Z,22.27
2022-08-12T21:18:12.003Z,22.21
2022-08-12T21:20:52.707Z,22.18
2022-08-12T21:23:21.273Z,22.19
2022-08-12T21:25:49.156Z,22.17
2022-08-12T21:28:20.338Z,22.19
2022-08-12T21:31:11.105Z,22.11
2022-08-12T21:33:58.755Z,22.09
2022-08-12T21:36:22.609Z,21.91
2022-08-12T21:38:51.017Z,21.79
2022-08-12T21:41:20.156Z,21.71
2022-08-12T21:43:52.381Z,21.70
2022-08-12T21:46:34.530Z,21.66
2022-08-12T21:49:04.878Z,21.59
2022-08-12T21:51:49.382Z,21.57
2022-08-12T21:54:22.742Z,21.57
2022-08-12T21:56:55.563Z,21.39
2022-08-12T21:59:22.039Z,21.28
2022-08-12T22:01:49.598Z,21.20
2022-08-12T22:04:36.246Z,21.27
2022-08-12T22:07:03.219Z,21.26
2022-08-12T22:09:30.340Z,21.25
2022-08-12T22:12:48.916Z,21.20
2022-08-12T22:15:21.988Z,21.11
2022-08-12T22:17:50.541Z,21.12
2022-08-12T22:20:22.282Z,21.01
2022-08-12T22:22:53.750Z,20.96
2022-08-12T22:25:24.220Z,20.76
2022-08-12T22:28:12.399Z,20.73
2022-08-12T22:30:57.325Z,20.78
2022-08-12T22:33:24.788Z,20.76
2022-08-12T22:35:59.142Z,20.82
2022-08-12T22:38:29.155Z,20.79
2022-08-12T22:41:00.980Z,20.68
2022-08-12T22:44:00.522Z,20.63
2022-08-12T22:46:52.545Z,20.54
2022-08-12T22:49:36.563Z,20.48
2022-08-12T22:52:13.034Z,20.45
2022-08-12T22:54:46.406Z,20.54
2022-08-12T22:57:53.576Z,20.53
2022-08-12T23:00:23.889Z,20.35
2022-08-12T23:02:51.776Z,20.45
2022-08-12T23:05:23.434Z,20.09
2022-08-12T23:08:13.886Z,20.20
2022-08-12T23:10:45.081Z,20.09
2022-08-12T23:13:30.143Z,20.09
2022-08-12T23:16:10.151Z,19.99
2022-08-12T23:18:54.215Z,20.02
2022-08-12T23:21:23.743Z,19.90
2022-08-12T23:24:09.064Z,19.93
2022-08-12T23:26:55.151Z,19.80
2022-08-12T23:29:29.941Z,19.74
2022-08-12T23:32:10.104Z,19.87
2022-08-12T23:34:37.359Z,19.80
2022-08-12T23:37:05.813Z,19.84
2022-08-12T23:40:06.510Z,19.93
2022-08-12T23:42:19.987Z,19.85
2022-08-12T23:44:48.537Z,19.85
2022-08-12T23:47:21.105Z,19.72
2022-08-12T23:49:57.959Z,19.58
2022-08-12T23:52:27.677Z,19.68
2022-08-12T23:55:24.967Z,19.52
2022-08-12T23:58:17.773Z,19.41
